createdAt,value
2023-04-18T00:00:37.273Z,2.50
2023-04-18T00:01:37.260Z,2.70
2023-04-18T00:02:37.381Z,2.40
2023-04-18T00:03:37.350Z,2.20
2023-04-18T00:04:37.364Z,2.60
2023-04-18T00:05:37.199Z,2.40
2023-04-18T00:06:37.198Z,2.70
2023-04-18T00:07:37.183Z,2.70
2023-04-18T00:08:37.171Z,2.40
2023-04-18T00:09:37.281Z,2.50
2023-04-18T00:10:37.182Z,2.50
2023-04-18T00:11:37.140Z,2.50
2023-04-18T00:12:37.131Z,2.40
2023-04-18T00:13:37.125Z,2.50
2023-04-18T00:14:37.100Z,2.70
2023-04-18T00:15:37.130Z,2.40
2023-04-18T00:16:37.119Z,2.30
2023-04-18T00:17:37.083Z,2.80
2023-04-18T00:18:37.177Z,2.30
2023-04-18T00:19:37.051Z,2.20
2023-04-18T00:20:37.067Z,2.60
2023-04-18T00:21:37.023Z,2.20
2023-04-18T00:22:37.020Z,2.30
2023-04-18T00:23:37.011Z,2.30
2023-04-18T00:24:39.942Z,2.30
2023-04-18T00:25:36.988Z,2.60
2023-04-18T00:26:37.004Z,2.50
2023-04-18T00:27:36.967Z,2.50
2023-04-18T00:28:36.983Z,2.70
2023-04-18T00:29:43.009Z,2.40
2023-04-18T00:30:36.949Z,2.50
2023-04-18T00:31:36.921Z,2.60
2023-04-18T00:32:36.935Z,2.40
2023-04-18T00:33:36.897Z,2.40
2023-04-18T00:34:36.911Z,2.60
2023-04-18T00:35:36.880Z,2.60
2023-04-18T00:36:36.880Z,2.20
2023-04-18T00:37:36.856Z,2.70
2023-04-18T00:38:36.849Z,2.60
2023-04-18T00:39:36.873Z,3.00
2023-04-18T00:40:36.827Z,2.70
2023-04-18T00:41:36.812Z,2.40
2023-04-18T00:42:36.805Z,2.70
2023-04-18T00:43:36.793Z,2.60
2023-04-18T00:44:36.778Z,2.80
2023-04-18T00:45:36.801Z,2.60
2023-04-18T00:46:36.892Z,2.90
2023-04-18T00:47:36.856Z,2.50
2023-04-18T00:48:36.742Z,2.50
2023-04-18T00:49:36.746Z,2.80
2023-04-18T00:50:36.719Z,2.50
2023-04-18T00:51:36.794Z,2.60
2023-04-18T00:52:36.704Z,2.60
2023-04-18T00:53:36.691Z,2.40
2023-04-18T00:54:36.675Z,2.70
2023-04-18T00:55:36.662Z,2.50
2023-04-18T00:56:36.651Z,2.50
2023-04-18T00:57:36.671Z,2.60
2023-04-18T00:58:36.635Z,2.80
2023-04-18T00:59:36.623Z,2.50
2023-04-18T01:00:36.615Z,2.70
2023-04-18T01:01:36.642Z,2.30
2023-04-18T01:02:36.753Z,2.30
2023-04-18T01:03:36.743Z,2.50
2023-04-18T01:04:36.589Z,2.70
2023-04-18T01:05:36.565Z,2.40
2023-04-18T01:06:36.561Z,2.60
2023-04-18T01:07:36.567Z,2.70
2023-04-18T01:08:36.526Z,2.40
2023-04-18T01:09:36.520Z,2.70
2023-04-18T01:10:36.508Z,2.50
2023-04-18T01:11:36.521Z,2.40
2023-04-18T01:12:36.509Z,2.50
2023-04-18T01:13:36.504Z,2.70
2023-04-18T01:14:36.469Z,2.50
2023-04-18T01:15:36.484Z,2.80
2023-04-18T01:16:36.442Z,2.50
2023-04-18T01:17:36.499Z,2.20
2023-04-18T01:18:36.451Z,2.60
2023-04-18T01:19:36.438Z,2.60
2023-04-18T01:20:36.412Z,2.40
2023-04-18T01:21:36.396Z,2.70
2023-04-18T01:22:36.386Z,2.50
2023-04-18T01:23:36.370Z,2.60
2023-04-18T01:24:36.437Z,2.30
2023-04-18T01:25:36.350Z,2.50
2023-04-18T01:26:36.355Z,2.70
2023-04-18T01:27:36.343Z,2.30
2023-04-18T01:28:36.331Z,2.60
2023-04-18T01:29:38.484Z,2.50
2023-04-18T01:30:36.301Z,2.40
2023-04-18T01:31:36.344Z,2.80
2023-04-18T01:32:36.332Z,2.70
2023-04-18T01:33:36.260Z,2.50
2023-04-18T01:34:36.261Z,2.50
2023-04-18T01:35:36.241Z,2.80
2023-04-18T01:36:36.256Z,2.50
2023-04-18T01:37:36.229Z,2.50
2023-04-18T01:38:36.225Z,2.80
2023-04-18T01:39:36.201Z,2.40
2023-04-18T01:40:36.198Z,2.60
2023-04-18T01:41:36.202Z,2.50
2023-04-18T01:42:36.169Z,2.30
2023-04-18T01:43:36.158Z,2.50
2023-04-18T01:44:36.178Z,2.60
2023-04-18T01:45:36.136Z,2.80
2023-04-18T01:46:36.237Z,2.70
2023-04-18T01:47:36.175Z,2.40
2023-04-18T01:48:36.114Z,2.20
2023-04-18T01:49:36.096Z,2.70
2023-04-18T01:50:36.092Z,2.20
2023-04-18T01:51:36.076Z,2.40
2023-04-18T01:52:36.095Z,2.50
2023-04-18T01:53:36.050Z,2.10
2023-04-18T01:54:36.041Z,2.90
2023-04-18T01:55:36.031Z,2.60
2023-04-18T01:56:36.034Z,2.70
2023-04-18T01:57:36.008Z,2.70
2023-04-18T01:58:36.045Z,2.50
2023-04-18T01:59:35.989Z,2.80
2023-04-18T02:00:35.996Z,2.80
2023-04-18T02:01:35.970Z,2.40
2023-04-18T02:02:36.028Z,2.30
2023-04-18T02:03:36.144Z,2.30
2023-04-18T02:04:35.964Z,2.60
2023-04-18T02:05:35.929Z,2.90
2023-04-18T02:06:35.941Z,2.60
2023-04-18T02:07:35.904Z,2.70
2023-04-18T02:08:36.145Z,2.40
2023-04-18T02:09:35.885Z,2.70
2023-04-18T02:10:35.896Z,2.40
2023-04-18T02:11:35.857Z,2.60
2023-04-18T02:12:35.850Z,2.60
2023-04-18T02:13:35.841Z,2.40
2023-04-18T02:14:35.858Z,3.10
2023-04-18T02:15:35.826Z,2.30
2023-04-18T02:16:35.823Z,2.40
2023-04-18T02:17:35.823Z,2.40
2023-04-18T02:18:35.782Z,2.60
2023-04-18T02:19:35.783Z,2.50
2023-04-18T02:20:35.795Z,2.70
2023-04-18T02:21:35.759Z,2.90
2023-04-18T02:22:35.743Z,2.60
2023-04-18T02:23:35.735Z,2.60
2023-04-18T02:24:35.725Z,2.20
2023-04-18T02:25:35.738Z,2.50
2023-04-18T02:26:35.712Z,2.30
2023-04-18T02:27:35.686Z,2.50
2023-04-18T02:28:35.683Z,2.60
2023-04-18T02:29:35.669Z,2.60
2023-04-18T02:30:35.682Z,2.60
2023-04-18T02:31:35.762Z,2.50
2023-04-18T02:32:35.659Z,2.50
2023-04-18T02:33:35.647Z,2.50
2023-04-18T02:34:35.618Z,2.50
2023-04-18T02:35:35.616Z,2.30
2023-04-18T02:36:35.602Z,2.30
2023-04-18T02:37:35.606Z,2.50
2023-04-18T02:38:35.602Z,2.50
2023-04-18T02:39:35.568Z,2.50
2023-04-18T02:40:35.549Z,2.70
2023-04-18T02:41:35.562Z,2.50
2023-04-18T02:42:35.530Z,2.30
2023-04-18T02:43:35.546Z,2.30
2023-04-18T02:44:35.535Z,2.20
2023-04-18T02:45:35.606Z,2.60
2023-04-18T02:46:35.491Z,2.60
2023-04-18T02:47:46.939Z,2.50
2023-04-18T02:48:35.479Z,2.40
2023-04-18T02:49:35.459Z,2.40
2023-04-18T02:50:35.509Z,2.30
2023-04-18T02:51:35.472Z,2.80
2023-04-18T02:52:35.430Z,2.40
2023-04-18T02:53:35.427Z,2.10
2023-04-18T02:54:35.401Z,2.60
2023-04-18T02:55:35.389Z,2.30
2023-04-18T02:56:35.412Z,2.40
2023-04-18T02:57:35.377Z,2.40
2023-04-18T02:58:35.361Z,2.40
2023-04-18T02:59:35.349Z,2.60
2023-04-18T03:00:35.340Z,2.40
2023-04-18T03:01:35.387Z,2.50
2023-04-18T03:02:35.472Z,2.50
2023-04-18T03:03:35.370Z,2.10
2023-04-18T03:04:35.383Z,2.50
2023-04-18T03:05:35.289Z,2.40
2023-04-18T03:06:35.277Z,2.50
2023-04-18T03:07:35.272Z,2.40
2023-04-18T03:08:35.279Z,2.40
2023-04-18T03:09:35.253Z,2.50
2023-04-18T03:10:35.233Z,2.40
2023-04-18T03:11:35.233Z,2.90
2023-04-18T03:12:35.209Z,2.40
2023-04-18T03:13:35.237Z,2.40
2023-04-18T03:14:35.253Z,2.90
2023-04-18T03:15:35.210Z,2.80
2023-04-18T03:16:35.175Z,2.90
2023-04-18T03:17:35.189Z,2.40
2023-04-18T03:18:35.161Z,2.70
2023-04-18T03:19:35.158Z,2.50
2023-04-18T03:20:35.166Z,2.80
2023-04-18T03:21:35.110Z,2.90
2023-04-18T03:22:35.114Z,2.70
2023-04-18T03:23:35.091Z,2.60
2023-04-18T03:24:35.103Z,2.70
2023-04-18T03:25:35.070Z,2.70
2023-04-18T03:26:35.083Z,2.70
2023-04-18T03:27:35.051Z,2.60
2023-04-18T03:28:35.048Z,2.70
2023-04-18T03:29:35.051Z,2.60
2023-04-18T03:30:35.020Z,2.70
2023-04-18T03:31:35.065Z,2.50
2023-04-18T03:32:35.070Z,2.70
2023-04-18T03:33:34.993Z,2.60
2023-04-18T03:34:35.002Z,2.40
2023-04-18T03:35:35.032Z,2.70
2023-04-18T03:36:34.960Z,2.40
2023-04-18T03:37:34.942Z,2.80
2023-04-18T03:38:34.932Z,2.10
2023-04-18T03:39:34.918Z,2.40
2023-04-18T03:40:34.947Z,2.10
2023-04-18T03:41:34.898Z,2.90
2023-04-18T03:42:34.884Z,2.50
2023-04-18T03:43:34.888Z,2.20
2023-04-18T03:44:34.869Z,2.50
2023-04-18T03:45:34.888Z,2.70
2023-04-18T03:46:34.908Z,2.40
2023-04-18T03:47:34.877Z,2.40
2023-04-18T03:48:34.828Z,2.80
2023-04-18T03:49:34.819Z,2.20
2023-04-18T03:50:34.822Z,2.40
2023-04-18T03:51:34.799Z,2.70
2023-04-18T03:52:34.782Z,2.50
2023-04-18T03:53:34.768Z,2.40
2023-04-18T03:54:34.757Z,2.80
2023-04-18T03:55:34.753Z,2.50
2023-04-18T03:56:34.763Z,2.60
2023-04-18T03:57:34.727Z,2.20
2023-04-18T03:58:34.723Z,2.60
2023-04-18T03:59:34.705Z,2.70
2023-04-18T04:00:34.700Z,2.60
2023-04-18T04:01:34.701Z,2.40
2023-04-18T04:02:34.906Z,2.70
2023-04-18T04:03:34.749Z,2.50
2023-04-18T04:04:34.701Z,2.50
2023-04-18T04:05:34.668Z,2.80
2023-04-18T04:06:34.641Z,2.60
2023-04-18T04:07:34.657Z,2.60
2023-04-18T04:08:34.610Z,2.80
2023-04-18T04:09:34.604Z,2.90
2023-04-18T04:10:34.606Z,2.40
2023-04-18T04:11:34.583Z,2.80
2023-04-18T04:12:34.591Z,2.90
2023-04-18T04:13:34.584Z,3.10
2023-04-18T04:14:34.573Z,2.80
2023-04-18T04:15:34.544Z,2.80
2023-04-18T04:16:34.545Z,2.80
2023-04-18T04:17:34.535Z,2.50
2023-04-18T04:18:34.542Z,2.60
2023-04-18T04:19:34.503Z,2.80
2023-04-18T04:20:34.484Z,3.20
2023-04-18T04:21:34.472Z,2.80
2023-04-18T04:22:34.459Z,3.50
2023-04-18T04:23:34.473Z,3.10
2023-04-18T04:24:34.445Z,3.10
2023-04-18T04:25:34.427Z,3.10
2023-04-18T04:26:34.441Z,2.70
2023-04-18T04:27:34.405Z,2.60
2023-04-18T04:28:34.422Z,2.90
2023-04-18T04:29:34.382Z,2.80
2023-04-18T04:30:34.378Z,2.60
2023-04-18T04:31:34.381Z,3.00
2023-04-18T04:32:34.370Z,3.10
2023-04-18T04:33:34.336Z,2.90
2023-04-18T04:34:34.372Z,3.10
2023-04-18T04:35:34.329Z,3.20
2023-04-18T04:36:34.304Z,2.70
2023-04-18T04:37:34.298Z,3.20
2023-04-18T04:38:34.313Z,3.00
2023-04-18T04:39:34.273Z,3.10
2023-04-18T04:40:34.287Z,3.30
2023-04-18T04:41:34.257Z,3.40
2023-04-18T04:42:34.256Z,3.10
2023-04-18T04:43:34.237Z,3.20
2023-04-18T04:44:34.282Z,3.40
2023-04-18T04:45:34.284Z,2.80
2023-04-18T04:46:34.268Z,3.20
2023-04-18T04:47:34.227Z,2.90
2023-04-18T04:48:34.178Z,3.20
2023-04-18T04:49:34.180Z,3.40
2023-04-18T04:50:34.174Z,2.90
2023-04-18T04:51:34.130Z,3.00
2023-04-18T04:52:34.135Z,2.90
2023-04-18T04:53:34.124Z,3.30
2023-04-18T04:54:34.115Z,3.20
2023-04-18T04:55:34.099Z,3.20
2023-04-18T04:56:34.115Z,3.10
2023-04-18T04:57:34.068Z,2.80
2023-04-18T04:58:34.068Z,2.80
2023-04-18T04:59:34.048Z,2.80
2023-04-18T05:00:34.063Z,2.80
2023-04-18T05:01:34.102Z,3.00
2023-04-18T05:02:34.112Z,2.90
2023-04-18T05:03:34.277Z,3.00
2023-04-18T05:04:34.104Z,3.00
2023-04-18T05:05:34.007Z,3.00
2023-04-18T05:06:33.970Z,3.10
2023-04-18T05:07:33.990Z,2.80
2023-04-18T05:08:33.956Z,3.10
2023-04-18T05:09:33.952Z,3.10
2023-04-18T05:10:33.927Z,3.00
2023-04-18T05:11:33.959Z,3.00
2023-04-18T05:12:33.928Z,3.30
2023-04-18T05:13:33.900Z,3.50
2023-04-18T05:14:33.903Z,3.10
2023-04-18T05:15:33.876Z,3.00
2023-04-18T05:16:33.935Z,2.70
2023-04-18T05:17:33.904Z,3.40
2023-04-18T05:18:35.036Z,3.00
2023-04-18T05:19:33.849Z,3.80
2023-04-18T05:20:33.839Z,3.10
2023-04-18T05:21:33.809Z,3.30
2023-04-18T05:22:33.805Z,3.00
2023-04-18T05:23:33.790Z,3.20
2023-04-18T05:24:33.821Z,3.30
2023-04-18T05:25:33.766Z,3.10
2023-04-18T05:26:33.755Z,3.30
2023-04-18T05:27:33.751Z,3.60
2023-04-18T05:28:33.775Z,3.10
2023-04-18T05:29:33.724Z,3.10
2023-04-18T05:30:33.717Z,3.40
2023-04-18T05:31:33.718Z,3.70
2023-04-18T05:32:33.756Z,3.80
2023-04-18T05:33:33.679Z,3.20
2023-04-18T05:34:33.699Z,3.30
2023-04-18T05:35:33.677Z,3.50
2023-04-18T05:36:33.652Z,3.70
2023-04-18T05:37:33.638Z,3.30
2023-04-18T05:38:33.634Z,3.40
2023-04-18T05:39:33.648Z,3.30
2023-04-18T05:40:33.624Z,3.50
2023-04-18T05:41:33.599Z,3.30
2023-04-18T05:42:33.613Z,3.60
2023-04-18T05:43:33.575Z,3.60
2023-04-18T05:44:33.573Z,3.20
2023-04-18T05:45:33.578Z,3.40
2023-04-18T05:46:33.571Z,4.00
2023-04-18T05:47:33.731Z,3.70
2023-04-18T05:48:33.532Z,3.50
2023-04-18T05:49:33.517Z,3.20
2023-04-18T05:50:33.508Z,3.30
2023-04-18T05:51:33.514Z,3.10
2023-04-18T05:52:33.516Z,3.40
2023-04-18T05:53:33.476Z,3.30
2023-04-18T05:54:33.460Z,3.00
2023-04-18T05:55:33.453Z,3.30
2023-04-18T05:56:33.438Z,3.40
2023-04-18T05:57:33.443Z,3.40
2023-04-18T05:58:33.421Z,4.00
2023-04-18T05:59:33.403Z,3.90
2023-04-18T06:00:33.395Z,3.80
2023-04-18T06:01:33.378Z,3.50
2023-04-18T06:02:33.593Z,3.60
2023-04-18T06:03:33.566Z,3.40
2023-04-18T06:04:33.486Z,3.60
2023-04-18T06:05:33.441Z,3.50
2023-04-18T06:06:33.322Z,3.80
2023-04-18T06:07:33.325Z,3.40
2023-04-18T06:08:33.347Z,3.60
2023-04-18T06:09:33.299Z,3.40
2023-04-18T06:10:33.282Z,3.40
2023-04-18T06:11:33.267Z,3.70
2023-04-18T06:12:33.268Z,3.30
2023-04-18T06:13:33.246Z,3.10
2023-04-18T06:14:33.257Z,3.80
2023-04-18T06:15:33.226Z,3.50
2023-04-18T06:16:33.248Z,3.30
2023-04-18T06:17:33.225Z,3.20
2023-04-18T06:18:33.218Z,3.80
2023-04-18T06:19:33.175Z,3.70
2023-04-18T06:20:33.166Z,3.60
2023-04-18T06:21:33.154Z,3.60
2023-04-18T06:22:33.150Z,3.40
2023-04-18T06:23:33.138Z,3.80
2023-04-18T06:24:33.157Z,3.40
2023-04-18T06:25:33.109Z,4.00
2023-04-18T06:26:33.102Z,3.50
2023-04-18T06:27:33.108Z,3.60
2023-04-18T06:28:33.085Z,3.30
2023-04-18T06:29:33.089Z,3.20
2023-04-18T06:30:39.939Z,3.60
2023-04-18T06:31:33.090Z,3.90
2023-04-18T06:32:33.108Z,3.30
2023-04-18T06:33:33.055Z,3.70
2023-04-18T06:34:33.063Z,3.60
2023-04-18T06:35:33.029Z,4.00
2023-04-18T06:36:32.991Z,3.70
2023-04-18T06:37:32.986Z,3.90
2023-04-18T06:38:32.982Z,3.60
2023-04-18T06:39:32.986Z,3.80
2023-04-18T06:40:32.966Z,3.80
2023-04-18T06:41:32.960Z,3.30
2023-04-18T06:42:32.922Z,3.90
2023-04-18T06:43:32.928Z,3.30
2023-04-18T06:44:32.920Z,4.00
2023-04-18T06:45:32.989Z,3.70
2023-04-18T06:46:32.930Z,3.80
2023-04-18T06:47:32.874Z,3.90
2023-04-18T06:48:32.862Z,3.90
2023-04-18T06:49:32.857Z,4.10
2023-04-18T06:50:32.884Z,3.60
2023-04-18T06:51:32.875Z,3.50
2023-04-18T06:52:32.827Z,3.60
2023-04-18T06:53:32.810Z,3.20
2023-04-18T06:54:32.812Z,4.20
2023-04-18T06:55:32.791Z,3.30
2023-04-18T06:56:34.449Z,3.50
2023-04-18T06:57:32.778Z,3.70
2023-04-18T06:58:32.748Z,3.50
2023-04-18T06:59:32.746Z,3.90
2023-04-18T07:00:32.735Z,3.90
2023-04-18T07:01:32.855Z,3.70
2023-04-18T07:02:32.858Z,3.40
2023-04-18T07:03:32.762Z,3.60
2023-04-18T07:04:32.717Z,3.20
2023-04-18T07:05:32.676Z,3.80
2023-04-18T07:06:32.663Z,3.70
2023-04-18T07:07:32.672Z,3.60
2023-04-18T07:08:32.670Z,3.50
2023-04-18T07:09:32.633Z,3.30
2023-04-18T07:10:32.833Z,3.30
2023-04-18T07:11:32.615Z,4.00
2023-04-18T07:12:32.605Z,3.50
2023-04-18T07:13:32.614Z,3.80
2023-04-18T07:14:34.199Z,3.60
2023-04-18T07:15:32.574Z,3.50
2023-04-18T07:16:32.580Z,3.60
2023-04-18T07:17:32.567Z,3.40
2023-04-18T07:18:37.970Z,3.70
2023-04-18T07:19:32.533Z,4.00
2023-04-18T07:20:32.505Z,3.40
2023-04-18T07:21:32.487Z,4.00
2023-04-18T07:22:32.472Z,3.40
2023-04-18T07:23:32.462Z,3.90
2023-04-18T07:24:32.474Z,4.10
2023-04-18T07:25:32.444Z,4.00
2023-04-18T07:26:32.479Z,3.50
2023-04-18T07:27:32.444Z,4.20
2023-04-18T07:28:32.412Z,4.00
2023-04-18T07:29:32.400Z,3.30
2023-04-18T07:30:32.405Z,3.50
2023-04-18T07:31:32.406Z,4.00
2023-04-18T07:32:32.404Z,4.20
2023-04-18T07:33:32.368Z,4.00
2023-04-18T07:34:32.334Z,3.90
2023-04-18T07:35:32.333Z,3.50
2023-04-18T07:36:32.448Z,3.60
2023-04-18T07:37:32.333Z,3.50
2023-04-18T07:38:32.356Z,3.60
2023-04-18T07:39:32.288Z,3.80
2023-04-18T07:40:32.275Z,4.40
2023-04-18T07:41:32.298Z,4.70
2023-04-18T07:42:32.252Z,4.00
2023-04-18T07:43:32.246Z,3.70
2023-04-18T07:44:32.247Z,3.80
2023-04-18T07:45:32.271Z,3.90
2023-04-18T07:46:32.313Z,4.00
2023-04-18T07:47:33.470Z,3.90
2023-04-18T07:48:32.192Z,3.60
2023-04-18T07:49:32.175Z,3.80
2023-04-18T07:50:32.163Z,3.90
2023-04-18T07:51:32.180Z,3.80
2023-04-18T07:52:32.154Z,4.20
2023-04-18T07:53:32.135Z,3.80
2023-04-18T07:54:32.126Z,3.70
2023-04-18T07:55:32.122Z,4.00
2023-04-18T07:56:32.124Z,3.60
2023-04-18T07:57:32.094Z,3.90
2023-04-18T07:58:32.119Z,4.10
2023-04-18T07:59:32.294Z,3.40
2023-04-18T08:00:32.058Z,4.00
2023-04-18T08:01:32.069Z,4.10
2023-04-18T08:02:32.165Z,4.20
2023-04-18T08:03:32.120Z,4.20
2023-04-18T08:04:32.101Z,4.20
2023-04-18T08:05:32.034Z,3.70
2023-04-18T08:06:31.998Z,4.20
2023-04-18T08:07:32.016Z,3.70
2023-04-18T08:08:31.974Z,4.20
2023-04-18T08:09:31.961Z,3.90
2023-04-18T08:10:32.011Z,3.80
2023-04-18T08:11:31.949Z,3.80
2023-04-18T08:12:31.925Z,4.90
2023-04-18T08:13:31.940Z,4.10
2023-04-18T08:14:31.906Z,4.20
2023-04-18T08:15:31.901Z,4.20
2023-04-18T08:16:31.941Z,4.10
2023-04-18T08:17:31.895Z,4.80
2023-04-18T08:18:31.880Z,4.20
2023-04-18T08:19:31.848Z,3.90
2023-04-18T08:20:31.841Z,4.40
2023-04-18T08:21:31.842Z,4.30
2023-04-18T08:22:31.858Z,4.70
2023-04-18T08:23:31.841Z,5.00
2023-04-18T08:24:31.793Z,4.80
2023-04-18T08:25:31.832Z,4.50
2023-04-18T08:26:31.779Z,4.60
2023-04-18T08:27:31.795Z,5.20
2023-04-18T08:28:31.776Z,4.40
2023-04-18T08:29:31.749Z,4.90
2023-04-18T08:30:31.743Z,4.70
2023-04-18T08:31:31.850Z,4.70
2023-04-18T08:32:31.740Z,5.00
2023-04-18T08:33:31.731Z,4.90
2023-04-18T08:34:31.686Z,5.00
2023-04-18T08:35:31.701Z,4.50
2023-04-18T08:36:31.666Z,5.20
2023-04-18T08:37:31.663Z,4.80
2023-04-18T08:38:31.672Z,5.10
2023-04-18T08:39:31.638Z,5.00
2023-04-18T08:40:31.623Z,5.30
2023-04-18T08:41:31.613Z,4.70
2023-04-18T08:42:31.609Z,4.80
2023-04-18T08:43:31.654Z,5.30
2023-04-18T08:44:31.596Z,4.60
2023-04-18T08:45:31.629Z,5.20
2023-04-18T08:46:31.561Z,4.50
2023-04-18T08:47:31.615Z,5.00
2023-04-18T08:48:31.595Z,5.10
2023-04-18T08:49:31.563Z,5.20
2023-04-18T08:50:31.533Z,4.60
2023-04-18T08:51:31.503Z,5.00
2023-04-18T08:52:31.490Z,5.10
2023-04-18T08:53:31.513Z,4.70
2023-04-18T08:54:31.465Z,4.50
2023-04-18T08:55:31.473Z,4.80
2023-04-18T08:56:31.474Z,5.60
2023-04-18T08:57:31.442Z,5.20
2023-04-18T08:58:31.432Z,4.80
2023-04-18T08:59:31.418Z,4.80
2023-04-18T09:00:31.396Z,5.10
2023-04-18T09:01:31.445Z,4.50
2023-04-18T09:02:31.508Z,4.70
2023-04-18T09:03:31.421Z,4.90
2023-04-18T09:04:31.497Z,5.10
2023-04-18T09:05:31.367Z,5.50
2023-04-18T09:06:31.345Z,5.00
2023-04-18T09:07:31.333Z,4.70
2023-04-18T09:08:31.339Z,5.00
2023-04-18T09:09:31.304Z,4.80
2023-04-18T09:10:31.291Z,4.50
2023-04-18T09:11:31.313Z,5.20
2023-04-18T09:12:31.288Z,5.20
2023-04-18T09:13:31.301Z,4.50
2023-04-18T09:14:31.248Z,5.10
2023-04-18T09:15:31.290Z,6.30
2023-04-18T09:16:31.231Z,5.70
2023-04-18T09:17:31.268Z,4.90
2023-04-18T09:18:31.251Z,5.10
2023-04-18T09:19:31.207Z,5.10
2023-04-18T09:20:31.180Z,5.20
2023-04-18T09:21:31.174Z,5.10
2023-04-18T09:22:31.158Z,4.30
2023-04-18T09:23:31.182Z,5.20
2023-04-18T09:24:31.182Z,4.90
2023-04-18T09:25:31.159Z,4.90
2023-04-18T09:26:31.121Z,4.90
2023-04-18T09:27:31.959Z,5.10
2023-04-18T09:28:31.097Z,5.20
2023-04-18T09:29:31.112Z,4.80
2023-04-18T09:30:31.076Z,5.10
2023-04-18T09:31:31.111Z,4.70
2023-04-18T09:32:31.148Z,4.80
2023-04-18T09:33:31.054Z,5.10
2023-04-18T09:34:31.076Z,4.70
2023-04-18T09:35:31.032Z,5.60
2023-04-18T09:36:31.060Z,5.10
2023-04-18T09:37:31.029Z,4.70
2023-04-18T09:38:31.004Z,5.30
2023-04-18T09:39:31.021Z,5.10
2023-04-18T09:40:31.002Z,5.60
2023-04-18T09:41:30.965Z,5.30
2023-04-18T09:42:30.956Z,5.50
2023-04-18T09:43:30.934Z,5.30
2023-04-18T09:44:30.952Z,5.20
2023-04-18T09:45:30.939Z,6.10
2023-04-18T09:46:30.955Z,5.40
2023-04-18T09:47:30.954Z,5.30
2023-04-18T09:48:30.883Z,5.50
2023-04-18T09:49:31.546Z,5.40
2023-04-18T09:50:30.893Z,5.30
2023-04-18T09:51:30.870Z,5.30
2023-04-18T09:52:30.847Z,5.50
2023-04-18T09:53:30.838Z,5.60
2023-04-18T09:54:30.837Z,5.70
2023-04-18T09:55:30.845Z,5.80
2023-04-18T09:56:30.813Z,5.10
2023-04-18T09:57:30.793Z,5.60
2023-04-18T09:58:30.801Z,5.50
2023-04-18T09:59:30.768Z,5.60
2023-04-18T10:00:30.749Z,5.30
2023-04-18T10:01:30.787Z,5.40
2023-04-18T10:02:30.801Z,5.70
2023-04-18T10:03:30.899Z,5.30
2023-04-18T10:04:30.811Z,6.10
2023-04-18T10:05:30.762Z,5.60
2023-04-18T10:06:30.683Z,6.00
2023-04-18T10:07:30.689Z,5.60
2023-04-18T10:08:30.667Z,5.60
2023-04-18T10:09:30.688Z,5.10
2023-04-18T10:10:30.664Z,5.90
2023-04-18T10:11:30.648Z,5.90
2023-04-18T10:12:30.635Z,5.30
2023-04-18T10:13:30.627Z,5.70
2023-04-18T10:14:30.630Z,5.50
2023-04-18T10:15:30.594Z,5.80
2023-04-18T10:16:30.613Z,5.50
2023-04-18T10:17:30.586Z,5.40
2023-04-18T10:18:30.625Z,5.70
2023-04-18T10:19:30.564Z,5.70
2023-04-18T10:20:30.517Z,5.90
2023-04-18T10:21:30.521Z,5.80
2023-04-18T10:22:30.522Z,5.80
2023-04-18T10:23:30.506Z,5.40
2023-04-18T10:24:30.522Z,5.00
2023-04-18T10:25:30.471Z,5.90
2023-04-18T10:26:30.466Z,5.40
2023-04-18T10:27:30.443Z,5.60
2023-04-18T10:28:30.454Z,5.80
2023-04-18T10:29:30.460Z,5.60
2023-04-18T10:30:30.429Z,5.00
2023-04-18T10:31:30.459Z,5.60
2023-04-18T10:32:30.420Z,5.40
2023-04-18T10:33:32.191Z,5.80
2023-04-18T10:34:30.409Z,6.30
2023-04-18T10:35:30.365Z,6.10
2023-04-18T10:36:30.358Z,6.30
2023-04-18T10:37:30.351Z,6.30
2023-04-18T10:38:30.349Z,6.30
2023-04-18T10:39:30.333Z,5.90
2023-04-18T10:40:30.335Z,6.70
2023-04-18T10:41:30.316Z,6.20
2023-04-18T10:42:30.287Z,6.10
2023-04-18T10:43:30.290Z,5.70
2023-04-18T10:44:30.279Z,5.60
2023-04-18T10:45:30.278Z,6.40
2023-04-18T10:46:32.744Z,6.20
2023-04-18T10:47:30.351Z,5.90
2023-04-18T10:48:30.297Z,6.00
2023-04-18T10:49:32.744Z,5.60
2023-04-18T10:50:30.197Z,5.80
2023-04-18T10:51:30.206Z,5.90
2023-04-18T10:52:30.211Z,5.90
2023-04-18T10:53:30.171Z,6.00
2023-04-18T10:54:30.165Z,6.20
2023-04-18T10:55:30.145Z,6.60
2023-04-18T10:56:30.158Z,6.10
2023-04-18T10:57:30.131Z,6.00
2023-04-18T10:58:30.147Z,6.30
2023-04-18T10:59:30.114Z,5.90
2023-04-18T11:00:30.098Z,5.90
2023-04-18T11:01:32.479Z,6.30
2023-04-18T11:02:30.499Z,6.00
2023-04-18T11:03:30.176Z,6.30
2023-04-18T11:04:30.143Z,6.20
2023-04-18T11:05:30.063Z,5.60
2023-04-18T11:06:30.029Z,5.60
2023-04-18T11:07:30.116Z,5.80
2023-04-18T11:08:30.058Z,5.80
2023-04-18T11:09:29.993Z,6.30
2023-04-18T11:10:29.988Z,5.70
2023-04-18T11:11:29.980Z,5.50
2023-04-18T11:12:29.974Z,5.70
2023-04-18T11:13:30.914Z,5.50
2023-04-18T11:14:30.013Z,5.20
2023-04-18T11:15:31.088Z,5.50
2023-04-18T11:16:29.978Z,5.80
2023-04-18T11:17:29.965Z,5.70
2023-04-18T11:18:29.928Z,5.50
2023-04-18T11:19:29.888Z,6.20
2023-04-18T11:20:29.908Z,5.60
2023-04-18T11:21:30.832Z,6.00
2023-04-18T11:22:29.865Z,6.30
2023-04-18T11:23:29.868Z,6.50
2023-04-18T11:24:29.835Z,5.80
2023-04-18T11:25:29.864Z,6.20
2023-04-18T11:26:29.825Z,5.90
2023-04-18T11:27:29.840Z,5.80
2023-04-18T11:28:29.815Z,6.20
2023-04-18T11:29:29.798Z,5.90
2023-04-18T11:30:29.773Z,5.70
2023-04-18T11:31:29.825Z,5.10
2023-04-18T11:32:29.917Z,6.00
2023-04-18T11:33:29.779Z,5.60
2023-04-18T11:34:29.744Z,5.40
2023-04-18T11:35:29.734Z,5.80
2023-04-18T11:36:29.707Z,6.00
2023-04-18T11:37:29.694Z,5.50
2023-04-18T11:38:29.717Z,6.00
2023-04-18T11:39:29.690Z,6.40
2023-04-18T11:40:29.679Z,6.10
2023-04-18T11:41:29.655Z,5.60
2023-04-18T11:42:29.667Z,6.30
2023-04-18T11:43:29.676Z,6.20
2023-04-18T11:44:29.604Z,5.90
2023-04-18T11:45:29.620Z,6.00
2023-04-18T11:46:29.678Z,5.50
2023-04-18T11:47:29.619Z,6.00
2023-04-18T11:48:29.597Z,6.10
2023-04-18T11:49:29.586Z,5.60
2023-04-18T11:50:29.554Z,6.50
2023-04-18T11:51:29.540Z,6.00
2023-04-18T11:52:29.533Z,5.50
2023-04-18T11:53:29.543Z,5.90
2023-04-18T11:54:29.513Z,5.80
2023-04-18T11:55:29.511Z,6.10
2023-04-18T11:56:29.504Z,5.40
2023-04-18T11:57:29.467Z,5.40
2023-04-18T11:58:29.509Z,5.40
2023-04-18T11:59:29.470Z,5.60
2023-04-18T12:00:29.448Z,5.80
2023-04-18T12:01:29.443Z,5.20
2023-04-18T12:02:29.528Z,6.00
2023-04-18T12:03:29.833Z,5.50
2023-04-18T12:04:29.636Z,5.50
2023-04-18T12:05:29.513Z,5.30
2023-04-18T12:06:29.497Z,6.10
2023-04-18T12:07:29.361Z,5.70
2023-04-18T12:08:29.364Z,5.60
2023-04-18T12:09:29.341Z,5.40
2023-04-18T12:10:29.376Z,5.20
2023-04-18T12:11:29.326Z,5.20
2023-04-18T12:12:29.324Z,5.00
2023-04-18T12:13:29.290Z,4.90
2023-04-18T12:14:29.286Z,5.00
2023-04-18T12:15:29.305Z,5.30
2023-04-18T12:16:29.357Z,5.30
2023-04-18T12:17:29.294Z,4.80
2023-04-18T12:18:29.243Z,4.80
2023-04-18T12:19:29.237Z,4.80
2023-04-18T12:20:29.268Z,5.00
2023-04-18T12:21:29.258Z,5.10
2023-04-18T12:22:29.252Z,4.50
2023-04-18T12:23:29.360Z,4.50
2023-04-18T12:24:29.212Z,5.20
2023-04-18T12:25:29.240Z,5.00
2023-04-18T12:26:29.175Z,4.70
2023-04-18T12:27:29.182Z,4.50
2023-04-18T12:28:29.173Z,4.60
2023-04-18T12:29:29.162Z,4.50
2023-04-18T12:30:37.726Z,5.00
2023-04-18T12:31:29.224Z,4.70
2023-04-18T12:32:29.213Z,4.70
2023-04-18T12:33:29.247Z,5.00
2023-04-18T12:34:29.069Z,4.30
2023-04-18T12:35:29.097Z,4.40
2023-04-18T12:36:29.079Z,4.30
2023-04-18T12:37:29.033Z,4.50
2023-04-18T12:38:29.038Z,4.70
2023-04-18T12:39:29.015Z,5.00
2023-04-18T12:40:29.008Z,4.40
2023-04-18T12:41:29.017Z,4.90
2023-04-18T12:42:28.976Z,4.90
2023-04-18T12:43:28.975Z,4.60
2023-04-18T12:44:28.960Z,4.60
2023-04-18T12:45:28.955Z,4.20
2023-04-18T12:46:29.036Z,4.60
2023-04-18T12:47:28.963Z,4.40
2023-04-18T12:48:28.929Z,4.50
2023-04-18T12:49:28.926Z,4.00
2023-04-18T12:50:28.902Z,4.20
2023-04-18T12:51:28.886Z,4.60
2023-04-18T12:52:28.887Z,4.50
2023-04-18T12:53:28.875Z,4.60
2023-04-18T12:54:28.884Z,4.30
2023-04-18T12:55:28.874Z,4.80
2023-04-18T12:56:28.836Z,4.50
2023-04-18T12:57:31.191Z,4.60
2023-04-18T12:58:28.815Z,3.80
2023-04-18T12:59:28.822Z,4.50
2023-04-18T13:00:28.914Z,4.40
2023-04-18T13:01:28.817Z,4.40
2023-04-18T13:02:28.899Z,4.30
2023-04-18T13:03:28.928Z,4.40
2023-04-18T13:04:28.905Z,4.40
2023-04-18T13:05:31.539Z,4.00
2023-04-18T13:06:28.733Z,4.70
2023-04-18T13:07:28.717Z,4.40
2023-04-18T13:08:28.709Z,4.30
2023-04-18T13:09:28.697Z,4.50
2023-04-18T13:10:28.684Z,4.20
2023-04-18T13:11:28.768Z,4.10
2023-04-18T13:12:28.660Z,4.80
2023-04-18T13:13:28.654Z,4.30
2023-04-18T13:14:28.648Z,4.40
2023-04-18T13:15:28.641Z,4.20
2023-04-18T13:16:28.705Z,4.40
2023-04-18T13:17:28.637Z,4.30
2023-04-18T13:18:28.607Z,4.20